sensor_id;sensor_type;location;lat;lon;timestamp;pressure;altitude;pressure_sealevel;temperature;humidity
7802;BME280;3945;48.952;9.506;2023-05-12T00:00:57;97648.06;;;11.53;99.45
7802;BME280;3945;48.952;9.506;2023-05-12T00:03:24;97648.63;;;11.55;99.94
7802;BME280;3945;48.952;9.506;2023-05-12T00:05:50;97635.56;;;11.53;99.69
7802;BME280;3945;48.952;9.506;2023-05-12T00:08:17;97635.84;;;11.52;100.00
7802;BME280;3945;48.952;9.506;2023-05-12T00:10:43;97628.34;;;11.49;99.83
7802;BME280;3945;48.952;9.506;2023-05-12T00:13:09;97636.59;;;11.47;99.51
7802;BME280;3945;48.952;9.506;2023-05-12T00:15:36;97639.78;;;11.44;99.85
7802;BME280;3945;48.952;9.506;2023-05-12T00:18:04;97633.88;;;11.42;100.00
7802;BME280;3945;48.952;9.506;2023-05-12T00:20:30;97635.97;;;11.40;100.00
7802;BME280;3945;48.952;9.506;2023-05-12T00:22:56;97631.47;;;11.41;100.00
7802;BME280;3945;48.952;9.506;2023-05-12T00:25:23;97630.91;;;11.39;100.00
7802;BME280;3945;48.952;9.506;2023-05-12T00:27:49;97627.19;;;11.40;100.00
7802;BME280;3945;48.952;9.506;2023-05-12T00:30:15;97623.47;;;11.41;100.00
7802;BME280;3945;48.952;9.506;2023-05-12T00:32:42;97620.81;;;11.41;100.00
7802;BME280;3945;48.952;9.506;2023-05-12T00:35:09;97619.19;;;11.40;100.00
7802;BME280;3945;48.952;9.506;2023-05-12T00:37:36;97626.38;;;11.39;100.00
7802;BME280;3945;48.952;9.506;2023-05-12T00:40:02;97623.47;;;11.41;100.00
7802;BME280;3945;48.952;9.506;2023-05-12T00:42:29;97626.13;;;11.41;100.00
7802;BME280;3945;48.952;9.506;2023-05-12T00:44:55;97630.41;;;11.42;100.00
7802;BME280;3945;48.952;9.506;2023-05-12T00:47:21;97625.88;;;11.42;100.00
7802;BME280;3945;48.952;9.506;2023-05-12T00:49:48;97625.88;;;11.42;100.00
7802;BME280;3945;48.952;9.506;2023-05-12T00:52:15;97632.81;;;11.43;100.00
7802;BME280;3945;48.952;9.506;2023-05-12T00:54:42;97625.88;;;11.42;100.00
7802;BME280;3945;48.952;9.506;2023-05-12T00:57:09;97621.84;;;11.40;100.00
7802;BME280;3945;48.952;9.506;2023-05-12T00:59:35;97629.03;;;11.39;100.00
7802;BME280;3945;48.952;9.506;2023-05-12T01:02:02;97623.72;;;11.39;100.00
7802;BME280;3945;48.952;9.506;2023-05-12T01:04:28;97620.81;;;11.41;100.00
7802;BME280;3945;48.952;9.506;2023-05-12T01:06:55;97623.47;;;11.41;100.00
7802;BME280;3945;48.952;9.506;2023-05-12T01:09:24;97619.19;;;11.40;100.00
7802;BME280;3945;48.952;9.506;2023-05-12T01:11:50;97612.81;;;11.41;100.00
7802;BME280;3945;48.952;9.506;2023-05-12T01:14:17;97616.03;;;11.43;100.00
7802;BME280;3945;48.952;9.506;2023-05-12T01:16:45;97616.84;;;11.43;100.00
7802;BME280;3945;48.952;9.506;2023-05-12T01:19:14;97615.22;;;11.42;100.00
7802;BME280;3945;48.952;9.506;2023-05-12T01:21:44;97612.31;;;11.44;100.00
7802;BME280;3945;48.952;9.506;2023-05-12T01:24:10;97621.13;;;11.44;100.00
7802;BME280;3945;48.952;9.506;2023-05-12T01:26:38;97615.78;;;11.44;100.00
7802;BME280;3945;48.952;9.506;2023-05-12T01:29:05;97612.31;;;11.44;100.00
7802;BME280;3945;48.952;9.506;2023-05-12T01:31:32;97620.31;;;11.44;100.00
7802;BME280;3945;48.952;9.506;2023-05-12T01:33:58;97613.13;;;11.44;100.00
7802;BME280;3945;48.952;9.506;2023-05-12T01:36:24;97614.75;;;11.45;100.00
7802;BME280;3945;48.952;9.506;2023-05-12T01:38:51;97613.94;;;11.45;100.00
7802;BME280;3945;48.952;9.506;2023-05-12T01:41:17;97618.13;;;11.41;100.00
7802;BME280;3945;48.952;9.506;2023-05-12T01:43:45;97618.13;;;11.41;99.80
7802;BME280;3945;48.952;9.506;2023-05-12T01:46:11;97615.72;;;11.39;100.00
7802;BME280;3945;48.952;9.506;2023-05-12T01:48:37;97612.25;;;11.39;99.69
7802;BME280;3945;48.952;9.506;2023-05-12T01:51:05;97624.25;;;11.36;99.75
7802;BME280;3945;48.952;9.506;2023-05-12T01:53:32;97620.22;;;11.33;99.82
7802;BME280;3945;48.952;9.506;2023-05-12T01:55:58;97619.66;;;11.31;100.00
7802;BME280;3945;48.952;9.506;2023-05-12T01:58:24;97619.38;;;11.28;99.90
7802;BME280;3945;48.952;9.506;2023-05-12T02:00:52;97623.88;;;11.27;99.76
7802;BME280;3945;48.952;9.506;2023-05-12T02:03:18;97628.41;;;11.27;100.00
7802;BME280;3945;48.952;9.506;2023-05-12T02:05:44;97626.00;;;11.25;99.43
7802;BME280;3945;48.952;9.506;2023-05-12T02:08:11;97627.84;;;11.25;99.48
7802;BME280;3945;48.952;9.506;2023-05-12T02:10:37;97619.06;;;11.24;99.88
7802;BME280;3945;48.952;9.506;2023-05-12T02:13:03;97624.94;;;11.26;99.76
7802;BME280;3945;48.952;9.506;2023-05-12T02:15:30;97624.66;;;11.23;99.72
7802;BME280;3945;48.952;9.506;2023-05-12T02:17:58;97619.56;;;11.21;99.28
7802;BME280;3945;48.952;9.506;2023-05-12T02:20:24;97622.47;;;11.20;99.86
7802;BME280;3945;48.952;9.506;2023-05-12T02:22:52;97623.28;;;11.20;99.43
7802;BME280;3945;48.952;9.506;2023-05-12T02:25:19;97619.56;;;11.21;99.77
7802;BME280;3945;48.952;9.506;2023-05-12T02:27:45;97619.81;;;11.20;99.57
7802;BME280;3945;48.952;9.506;2023-05-12T02:30:11;97623.53;;;11.19;99.82
7802;BME280;3945;48.952;9.506;2023-05-12T02:32:39;97620.06;;;11.18;99.71
7802;BME280;3945;48.952;9.506;2023-05-12T02:35:07;97612.59;;;11.15;99.21
7802;BME280;3945;48.952;9.506;2023-05-12T02:37:33;97625.59;;;11.12;99.22
7802;BME280;3945;48.952;9.506;2023-05-12T02:40:00;97621.84;;;11.08;98.72
7802;BME280;3945;48.952;9.506;2023-05-12T02:42:26;97621.53;;;11.04;98.85
7802;BME280;3945;48.952;9.506;2023-05-12T02:44:59;97613.78;;;11.03;98.93
7802;BME280;3945;48.952;9.506;2023-05-12T02:47:25;97623.09;;;11.00;99.29
7802;BME280;3945;48.952;9.506;2023-05-12T02:49:55;97621.72;;;10.98;99.75
7802;BME280;3945;48.952;9.506;2023-05-12T02:52:23;97620.63;;;10.93;99.85
7802;BME280;3945;48.952;9.506;2023-05-12T02:54:49;97620.06;;;10.91;99.62
7802;BME280;3945;48.952;9.506;2023-05-12T02:57:17;97609.09;;;10.88;100.00
7802;BME280;3945;48.952;9.506;2023-05-12T02:59:43;97613.66;;;10.87;100.00
7802;BME280;3945;48.952;9.506;2023-05-12T03:02:09;97611.22;;;10.86;100.00
7802;BME280;3945;48.952;9.506;2023-05-12T03:04:36;97612.53;;;10.83;100.00
7802;BME280;3945;48.952;9.506;2023-05-12T03:07:02;97614.69;;;10.86;100.00
7802;BME280;3945;48.952;9.506;2023-05-12T03:09:30;97606.44;;;10.88;100.00
7802;BME280;3945;48.952;9.506;2023-05-12T03:11:56;97615.00;;;10.90;100.00
7802;BME280;3945;48.952;9.506;2023-05-12T03:14:22;97615.31;;;10.93;100.00
7802;BME280;3945;48.952;9.506;2023-05-12T03:16:50;97610.59;;;11.01;100.00
7802;BME280;3945;48.952;9.506;2023-05-12T03:19:17;97622.03;;;11.01;100.00
7802;BME280;3945;48.952;9.506;2023-05-12T03:21:43;97616.97;;;11.00;100.00
7802;BME280;3945;48.952;9.506;2023-05-12T03:24:09;97618.81;;;10.99;100.00
7802;BME280;3945;48.952;9.506;2023-05-12T03:26:37;97620.19;;;11.02;100.00
7802;BME280;3945;48.952;9.506;2023-05-12T03:29:03;97615.66;;;11.02;100.00
7802;BME280;3945;48.952;9.506;2023-05-12T03:31:29;97620.72;;;11.04;100.00
7802;BME280;3945;48.952;9.506;2023-05-12T03:33:56;97615.94;;;11.06;100.00
7802;BME280;3945;48.952;9.506;2023-05-12T03:36:22;97616.75;;;11.06;100.00
7802;BME280;3945;48.952;9.506;2023-05-12T03:38:48;97617.31;;;11.08;100.00
7802;BME280;3945;48.952;9.506;2023-05-12T03:41:15;97623.97;;;11.11;100.00
7802;BME280;3945;48.952;9.506;2023-05-12T03:43:43;97615.19;;;11.10;100.00
7802;BME280;3945;48.952;9.506;2023-05-12T03:46:09;97617.84;;;11.10;100.00
7802;BME280;3945;48.952;9.506;2023-05-12T03:48:36;97616.00;;;11.11;100.00
7802;BME280;3945;48.952;9.506;2023-05-12T03:51:02;97615.75;;;11.12;100.00
7802;BME280;3945;48.952;9.506;2023-05-12T03:53:28;97616.81;;;11.11;100.00
7802;BME280;3945;48.952;9.506;2023-05-12T03:55:55;97604.03;;;11.13;100.00
7802;BME280;3945;48.952;9.506;2023-05-12T03:58:21;97611.78;;;11.15;100.00
7802;BME280;3945;48.952;9.506;2023-05-12T04:00:49;97614.97;;;11.17;100.00
7802;BME280;3945;48.952;9.506;2023-05-12T04:03:15;97605.94;;;11.18;100.00
7802;BME280;3945;48.952;9.506;2023-05-12T04:05:42;97605.94;;;11.18;100.00
7802;BME280;3945;48.952;9.506;2023-05-12T04:08:08;97613.69;;;11.19;100.00
7802;BME280;3945;48.952;9.506;2023-05-12T04:10:37;97609.41;;;11.18;100.00
7802;BME280;3945;48.952;9.506;2023-05-12T04:13:03;97609.72;;;11.22;100.00
7802;BME280;3945;48.952;9.506;2023-05-12T04:15:29;97606.00;;;11.23;100.00
7802;BME280;3945;48.952;9.506;2023-05-12T04:17:57;97608.16;;;11.26;100.00
7802;BME280;3945;48.952;9.506;2023-05-12T04:20:24;97611.38;;;11.28;100.00
7802;BME280;3945;48.952;9.506;2023-05-12T04:22:50;97606.03;;;11.28;100.00
7802;BME280;3945;48.952;9.506;2023-05-12T04:25:16;97611.66;;;11.31;100.00
7802;BME280;3945;48.952;9.506;2023-05-12T04:27:43;97606.34;;;11.31;100.00
7802;BME280;3945;48.952;9.506;2023-05-12T04:30:09;97612.47;;;11.32;100.00
7802;BME280;3945;48.952;9.506;2023-05-12T04:32:36;97618.09;;;11.35;100.00
7802;BME280;3945;48.952;9.506;2023-05-12T04:35:04;97610.66;;;11.38;100.00
7802;BME280;3945;48.952;9.506;2023-05-12T04:37:30;97615.72;;;11.39;100.00
7802;BME280;3945;48.952;9.506;2023-05-12T04:39:56;97616.03;;;11.43;100.00
7802;BME280;3945;48.952;9.506;2023-05-12T04:42:23;97621.13;;;11.44;100.00
7802;BME280;3945;48.952;9.506;2023-05-12T04:44:49;97628.84;;;11.46;100.00
7802;BME280;3945;48.952;9.506;2023-05-12T04:47:15;97623.25;;;11.47;100.00
7802;BME280;3945;48.952;9.506;2023-05-12T04:49:42;97623.03;;;11.54;100.00
7802;BME280;3945;48.952;9.506;2023-05-12T04:52:09;97628.38;;;11.54;100.00
7802;BME280;3945;48.952;9.506;2023-05-12T04:54:36;97632.16;;;11.58;100.00
7802;BME280;3945;48.952;9.506;2023-05-12T04:57:03;97635.63;;;11.58;100.00
7802;BME280;3945;48.952;9.506;2023-05-12T04:59:29;97640.16;;;11.58;100.00
7802;BME280;3945;48.952;9.506;2023-05-12T05:01:56;97640.41;;;11.56;100.00
7802;BME280;3945;48.952;9.506;2023-05-12T05:04:23;97645.41;;;11.53;100.00
7802;BME280;3945;48.952;9.506;2023-05-12T05:06:49;97641.97;;;11.52;100.00
7802;BME280;3945;48.952;9.506;2023-05-12T05:09:16;97642.50;;;11.54;100.00
7802;BME280;3945;48.952;9.506;2023-05-12T05:11:43;97644.13;;;11.55;100.00
7802;BME280;3945;48.952;9.506;2023-05-12T05:14:09;97642.75;;;11.53;100.00
7802;BME280;3945;48.952;9.506;2023-05-12T05:16:36;97639.84;;;11.54;100.00
7802;BME280;3945;48.952;9.506;2023-05-12T05:19:02;97641.75;;;11.59;100.00
7802;BME280;3945;48.952;9.506;2023-05-12T05:21:28;97643.34;;;11.60;100.00
7802;BME280;3945;48.952;9.506;2023-05-12T05:23:55;97640.44;;;11.61;100.00
7802;BME280;3945;48.952;9.506;2023-05-12T05:26:22;97644.47;;;11.64;100.00
7802;BME280;3945;48.952;9.506;2023-05-12T05:28:49;97645.28;;;11.69;100.00
7802;BME280;3945;48.952;9.506;2023-05-12T05:31:19;97647.25;;;11.74;100.00
7802;BME280;3945;48.952;9.506;2023-05-12T05:33:45;97651.00;;;11.78;100.00
7802;BME280;3945;48.952;9.506;2023-05-12T05:36:12;97649.69;;;11.81;100.00
7802;BME280;3945;48.952;9.506;2023-05-12T05:38:38;97656.09;;;11.80;100.00
7802;BME280;3945;48.952;9.506;2023-05-12T05:41:05;97650.50;;;11.81;100.00
7802;BME280;3945;48.952;9.506;2023-05-12T05:43:33;97653.69;;;11.83;100.00
7802;BME280;3945;48.952;9.506;2023-05-12T05:45:59;97652.63;;;11.84;100.00
7802;BME280;3945;48.952;9.506;2023-05-12T05:48:26;97647.06;;;11.86;100.00
7802;BME280;3945;48.952;9.506;2023-05-12T05:50:52;97652.38;;;11.86;100.00
7802;BME280;3945;48.952;9.506;2023-05-12T05:53:19;97657.50;;;11.92;100.00
7802;BME280;3945;48.952;9.506;2023-05-12T05:55:45;97656.19;;;11.95;100.00
7802;BME280;3945;48.952;9.506;2023-05-12T05:58:12;97656.19;;;11.95;99.97
7802;BME280;3945;48.952;9.506;2023-05-12T06:00:40;97659.13;;;11.98;100.00
7802;BME280;3945;48.952;9.506;2023-05-12T06:03:07;97654.69;;;12.09;100.00
7802;BME280;3945;48.952;9.506;2023-05-12T06:05:33;97659.56;;;12.17;100.00
7802;BME280;3945;48.952;9.506;2023-05-12T06:08:00;97658.47;;;12.18;100.00
7802;BME280;3945;48.952;9.506;2023-05-12T06:10:26;97660.06;;;12.19;100.00
7802;BME280;3945;48.952;9.506;2023-05-12T06:12:53;97661.44;;;12.22;100.00
7802;BME280;3945;48.952;9.506;2023-05-12T06:15:19;97667.31;;;12.24;100.00
7802;BME280;3945;48.952;9.506;2023-05-12T06:17:47;97665.25;;;12.31;100.00
7802;BME280;3945;48.952;9.506;2023-05-12T06:20:13;97670.03;;;12.34;100.00
7802;BME280;3945;48.952;9.506;2023-05-12T06:22:39;97670.88;;;12.39;100.00
7802;BME280;3945;48.952;9.506;2023-05-12T06:25:08;97667.22;;;12.50;100.00
7802;BME280;3945;48.952;9.506;2023-05-12T06:27:35;97668.81;;;12.51;100.00
7802;BME280;3945;48.952;9.506;2023-05-12T06:30:01;97669.63;;;12.57;100.00
7802;BME280;3945;48.952;9.506;2023-05-12T06:32:28;97672.56;;;12.61;100.00
7802;BME280;3945;48.952;9.506;2023-05-12T06:34:56;97676.13;;;12.71;100.00
7802;BME280;3945;48.952;9.506;2023-05-12T06:37:22;97678.28;;;12.74;100.00
7802;BME280;3945;48.952;9.506;2023-05-12T06:39:48;97671.63;;;12.82;100.00
7802;BME280;3945;48.952;9.506;2023-05-12T06:42:15;97676.44;;;12.85;100.00
7802;BME280;3945;48.952;9.506;2023-05-12T06:44:41;97670.59;;;12.88;100.00
7802;BME280;3945;48.952;9.506;2023-05-12T06:47:07;97674.31;;;12.92;99.90
7802;BME280;3945;48.952;9.506;2023-05-12T06:49:33;97671.66;;;12.92;99.83
7802;BME280;3945;48.952;9.506;2023-05-12T06:52:03;97681.56;;;12.97;100.00
7802;BME280;3945;48.952;9.506;2023-05-12T06:54:30;97674.34;;;12.97;99.58
7802;BME280;3945;48.952;9.506;2023-05-12T06:56:56;97669.53;;;12.99;99.47
7802;BME280;3945;48.952;9.506;2023-05-12T06:59:23;97676.25;;;13.07;99.93
7802;BME280;3945;48.952;9.506;2023-05-12T07:01:49;97673.88;;;13.10;99.84
7802;BME280;3945;48.952;9.506;2023-05-12T07:04:16;97673.34;;;13.18;99.55
7802;BME280;3945;48.952;9.506;2023-05-12T07:06:42;97672.31;;;13.24;99.03
7802;BME280;3945;48.952;9.506;2023-05-12T07:09:10;97672.06;;;13.31;98.08
7802;BME280;3945;48.952;9.506;2023-05-12T07:11:36;97679.03;;;13.37;98.35
7802;BME280;3945;48.952;9.506;2023-05-12T07:14:03;97683.06;;;13.40;98.83
7802;BME280;3945;48.952;9.506;2023-05-12T07:16:29;97673.69;;;13.42;99.05
7802;BME280;3945;48.952;9.506;2023-05-12T07:18:56;97677.44;;;13.46;98.79
7802;BME280;3945;48.952;9.506;2023-05-12T07:21:22;97677.72;;;13.50;98.62
7802;BME280;3945;48.952;9.506;2023-05-12T07:23:49;97674.22;;;13.49;98.07
7802;BME280;3945;48.952;9.506;2023-05-12T07:26:18;97670.50;;;13.45;97.31
7802;BME280;3945;48.952;9.506;2023-05-12T07:28:48;97668.63;;;13.46;97.04
7802;BME280;3945;48.952;9.506;2023-05-12T07:31:14;97672.91;;;13.47;96.70
7802;BME280;3945;48.952;9.506;2023-05-12T07:33:41;97678.50;;;13.50;96.55
7802;BME280;3945;48.952;9.506;2023-05-12T07:36:07;97678.00;;;13.58;96.97
7802;BME280;3945;48.952;9.506;2023-05-12T07:38:34;97672.91;;;13.62;96.50
7802;BME280;3945;48.952;9.506;2023-05-12T07:41:01;97673.44;;;13.69;95.64
7802;BME280;3945;48.952;9.506;2023-05-12T07:43:29;97682.28;;;13.75;95.26
7802;BME280;3945;48.952;9.506;2023-05-12T07:45:55;97675.06;;;13.80;95.40
7802;BME280;3945;48.952;9.506;2023-05-12T07:48:23;97673.44;;;13.84;93.67
7802;BME280;3945;48.952;9.506;2023-05-12T07:50:49;97678.00;;;13.84;92.82
7802;BME280;3945;48.952;9.506;2023-05-12T07:53:15;97670.78;;;13.89;93.42
7802;BME280;3945;48.952;9.506;2023-05-12T07:55:42;97669.97;;;13.94;93.91
7802;BME280;3945;48.952;9.506;2023-05-12T07:58:08;97674.50;;;13.98;93.62
7802;BME280;3945;48.952;9.506;2023-05-12T08:00:36;97671.03;;;13.98;92.86
7802;BME280;3945;48.952;9.506;2023-05-12T08:03:03;97675.31;;;13.94;91.39
7802;BME280;3945;48.952;9.506;2023-05-12T08:05:30;97672.38;;;14.00;92.07
7802;BME280;3945;48.952;9.506;2023-05-12T08:07:56;97672.38;;;14.05;91.10
7802;BME280;3945;48.952;9.506;2023-05-12T08:10:23;97674.78;;;14.17;91.12
7802;BME280;3945;48.952;9.506;2023-05-12T08:12:53;97676.09;;;14.30;92.33
7802;BME280;3945;48.952;9.506;2023-05-12T08:15:20;97666.72;;;14.42;92.09
7802;BME280;3945;48.952;9.506;2023-05-12T08:17:48;97670.19;;;14.48;90.95
7802;BME280;3945;48.952;9.506;2023-05-12T08:20:14;97672.31;;;14.56;90.81
7802;BME280;3945;48.952;9.506;2023-05-12T08:22:40;97677.38;;;14.63;90.56
7802;BME280;3945;48.952;9.506;2023-05-12T08:25:08;97681.38;;;14.65;88.34
7802;BME280;3945;48.952;9.506;2023-05-12T08:27:34;97674.16;;;14.66;89.12
7802;BME280;3945;48.952;9.506;2023-05-12T08:30:00;97674.69;;;14.68;89.29
7802;BME280;3945;48.952;9.506;2023-05-12T08:32:27;97673.88;;;14.72;89.03
7802;BME280;3945;48.952;9.506;2023-05-12T08:34:54;97673.88;;;14.72;87.47
7802;BME280;3945;48.952;9.506;2023-05-12T08:37:21;97679.78;;;14.69;87.50
7802;BME280;3945;48.952;9.506;2023-05-12T08:39:47;97676.03;;;14.65;87.59
7802;BME280;3945;48.952;9.506;2023-05-12T08:42:17;97677.09;;;14.64;87.51
7802;BME280;3945;48.952;9.506;2023-05-12T08:44:47;97684.34;;;14.64;87.55
7802;BME280;3945;48.952;9.506;2023-05-12T08:47:14;97679.78;;;14.64;88.62
7802;BME280;3945;48.952;9.506;2023-05-12T08:49:43;97682.97;;;14.71;88.86
7802;BME280;3945;48.952;9.506;2023-05-12T08:52:11;97682.72;;;14.73;88.11
7802;BME280;3945;48.952;9.506;2023-05-12T08:54:42;97684.84;;;14.71;87.36
7802;BME280;3945;48.952;9.506;2023-05-12T08:57:09;97694.22;;;14.73;88.07
7802;BME280;3945;48.952;9.506;2023-05-12T08:59:36;97698.25;;;14.76;87.54
7802;BME280;3945;48.952;9.506;2023-05-12T09:02:03;97688.81;;;14.89;87.86
7802;BME280;3945;48.952;9.506;2023-05-12T09:04:30;97690.91;;;15.02;86.18
7802;BME280;3945;48.952;9.506;2023-05-12T09:06:57;97681.34;;;15.35;87.16
7802;BME280;3945;48.952;9.506;2023-05-12T09:09:25;97683.34;;;15.63;85.90
7802;BME280;3945;48.952;9.506;2023-05-12T09:11:52;97676.81;;;15.74;83.66
7802;BME280;3945;48.952;9.506;2023-05-12T09:14:21;97678.16;;;15.77;82.97
7802;BME280;3945;48.952;9.506;2023-05-12T09:16:49;97679.50;;;15.74;82.65
7802;BME280;3945;48.952;9.506;2023-05-12T09:19:18;97678.47;;;15.70;82.34
7802;BME280;3945;48.952;9.506;2023-05-12T09:21:45;97673.88;;;15.71;83.33
7802;BME280;3945;48.952;9.506;2023-05-12T09:24:11;97682.47;;;15.73;82.82
7802;BME280;3945;48.952;9.506;2023-05-12T09:26:46;97679.78;;;15.73;82.55
7802;BME280;3945;48.952;9.506;2023-05-12T09:29:12;97690.81;;;15.66;81.90
7802;BME280;3945;48.952;9.506;2023-05-12T09:31:47;97684.94;;;15.64;82.63
7802;BME280;3945;48.952;9.506;2023-05-12T09:34:13;97687.38;;;15.60;82.25
7802;BME280;3945;48.952;9.506;2023-05-12T09:36:40;97686.84;;;15.58;82.62
7802;BME280;3945;48.952;9.506;2023-05-12T09:39:07;97684.97;;;15.59;83.73
7802;BME280;3945;48.952;9.506;2023-05-12T09:41:34;97682.06;;;15.55;83.22
7802;BME280;3945;48.952;9.506;2023-05-12T09:44:02;97682.88;;;15.56;84.38
7802;BME280;3945;48.952;9.506;2023-05-12T09:46:28;97685.25;;;15.52;84.34
7802;BME280;3945;48.952;9.506;2023-05-12T09:48:54;97683.44;;;15.43;83.95
7802;BME280;3945;48.952;9.506;2023-05-12T09:51:21;97681.63;;;15.33;83.98
7802;BME280;3945;48.952;9.506;2023-05-12T09:53:48;97689.69;;;15.28;84.52
7802;BME280;3945;48.952;9.506;2023-05-12T09:56:15;97684.59;;;15.32;85.92
7802;BME280;3945;48.952;9.506;2023-05-12T09:58:42;97680.84;;;15.33;85.47
7802;BME280;3945;48.952;9.506;2023-05-12T10:01:10;97686.41;;;15.41;86.03
7802;BME280;3945;48.952;9.506;2023-05-12T10:03:38;97686.09;;;15.48;85.66
7802;BME280;3945;48.952;9.506;2023-05-12T10:06:05;97690.94;;;15.46;83.12
7802;BME280;3945;48.952;9.506;2023-05-12T10:08:33;97687.50;;;15.35;81.47
7802;BME280;3945;48.952;9.506;2023-05-12T10:11:01;97687.00;;;15.33;83.01
7802;BME280;3945;48.952;9.506;2023-05-12T10:13:28;97688.88;;;15.28;83.38
7802;BME280;3945;48.952;9.506;2023-05-12T10:15:55;97689.44;;;15.24;83.58
7802;BME280;3945;48.952;9.506;2023-05-12T10:18:24;97679.56;;;15.15;83.79
7802;BME280;3945;48.952;9.506;2023-05-12T10:20:50;97693.31;;;15.03;84.43
7802;BME280;3945;48.952;9.506;2023-05-12T10:23:17;97699.78;;;14.97;85.07
7802;BME280;3945;48.952;9.506;2023-05-12T10:25:44;97699.22;;;14.95;85.46
7802;BME280;3945;48.952;9.506;2023-05-12T10:28:10;97694.94;;;14.94;86.92
7802;BME280;3945;48.952;9.506;2023-05-12T10:30:37;97700.06;;;14.91;86.24
7802;BME280;3945;48.952;9.506;2023-05-12T10:33:04;97702.22;;;14.89;86.44
7802;BME280;3945;48.952;9.506;2023-05-12T10:35:34;97693.91;;;14.90;86.96
7802;BME280;3945;48.952;9.506;2023-05-12T10:38:01;97696.56;;;14.95;87.10
7802;BME280;3945;48.952;9.506;2023-05-12T10:40:28;97699.22;;;15.05;87.40
7802;BME280;3945;48.952;9.506;2023-05-12T10:42:57;97692.16;;;15.14;87.91
7802;BME280;3945;48.952;9.506;2023-05-12T10:45:23;97698.28;;;15.25;87.16
7802;BME280;3945;48.952;9.506;2023-05-12T10:47:50;97692.06;;;15.35;86.88
7802;BME280;3945;48.952;9.506;2023-05-12T10:50:24;97689.63;;;15.38;85.67
7802;BME280;3945;48.952;9.506;2023-05-12T10:52:53;97693.63;;;15.46;85.87
7802;BME280;3945;48.952;9.506;2023-05-12T10:55:29;97700.53;;;15.57;83.81
7802;BME280;3945;48.952;9.506;2023-05-12T10:58:02;97707.78;;;15.56;83.12
7802;BME280;3945;48.952;9.506;2023-05-12T11:00:28;97699.72;;;15.61;85.00
7802;BME280;3945;48.952;9.506;2023-05-12T11:02:55;97703.16;;;15.67;85.73
7802;BME280;3945;48.952;9.506;2023-05-12T11:05:21;97700.22;;;15.69;85.28
7802;BME280;3945;48.952;9.506;2023-05-12T11:07:59;97693.47;;;15.71;83.90
7802;BME280;3945;48.952;9.506;2023-05-12T11:10:27;97696.16;;;15.71;81.78
7802;BME280;3945;48.952;9.506;2023-05-12T11:12:53;97697.84;;;15.62;80.34
7802;BME280;3945;48.952;9.506;2023-05-12T11:15:20;97705.69;;;15.53;81.22
7802;BME280;3945;48.952;9.506;2023-05-12T11:17:46;97705.69;;;15.48;81.94
7802;BME280;3945;48.952;9.506;2023-05-12T11:20:20;97701.13;;;15.44;82.84
7802;BME280;3945;48.952;9.506;2023-05-12T11:22:47;97703.28;;;15.42;83.19
7802;BME280;3945;48.952;9.506;2023-05-12T11:25:15;97704.66;;;15.39;81.94
7802;BME280;3945;48.952;9.506;2023-05-12T11:27:44;97704.13;;;15.37;82.08
7802;BME280;3945;48.952;9.506;2023-05-12T11:30:11;97707.34;;;15.39;82.92
7802;BME280;3945;48.952;9.506;2023-05-12T11:32:37;97707.56;;;15.43;83.81
7802;BME280;3945;48.952;9.506;2023-05-12T11:35:07;97716.41;;;15.43;84.42
7802;BME280;3945;48.952;9.506;2023-05-12T11:37:35;97715.34;;;15.44;84.52
7802;BME280;3945;48.952;9.506;2023-05-12T11:40:01;97708.63;;;15.42;84.44
7802;BME280;3945;48.952;9.506;2023-05-12T11:42:29;97709.75;;;15.41;84.94
7802;BME280;3945;48.952;9.506;2023-05-12T11:44:56;97710.28;;;15.38;84.99
7802;BME280;3945;48.952;9.506;2023-05-12T11:47:22;97708.44;;;15.33;84.30
7802;BME280;3945;48.952;9.506;2023-05-12T11:49:49;97712.19;;;15.32;85.01
7802;BME280;3945;48.952;9.506;2023-05-12T11:52:16;97721.06;;;15.28;84.97
7802;BME280;3945;48.952;9.506;2023-05-12T11:54:47;97714.91;;;15.27;85.01
7802;BME280;3945;48.952;9.506;2023-05-12T11:57:22;97729.94;;;15.23;85.49
7802;BME280;3945;48.952;9.506;2023-05-12T11:59:56;97726.75;;;15.16;84.98
7802;BME280;3945;48.952;9.506;2023-05-12T12:02:22;97725.72;;;15.12;85.12
7802;BME280;3945;48.952;9.506;2023-05-12T12:04:49;97729.19;;;15.12;86.00
7802;BME280;3945;48.952;9.506;2023-05-12T12:07:15;97734.56;;;15.12;85.56
7802;BME280;3945;48.952;9.506;2023-05-12T12:09:41;97736.16;;;15.08;85.43
7802;BME280;3945;48.952;9.506;2023-05-12T12:12:08;97737.50;;;15.06;85.48
7802;BME280;3945;48.952;9.506;2023-05-12T12:14:36;97740.19;;;15.06;86.10
7802;BME280;3945;48.952;9.506;2023-05-12T12:17:06;97741.78;;;15.12;86.86
7802;BME280;3945;48.952;9.506;2023-05-12T12:19:33;97749.22;;;15.20;87.15
7802;BME280;3945;48.952;9.506;2023-05-12T12:21:59;97740.38;;;15.24;87.38
7802;BME280;3945;48.952;9.506;2023-05-12T12:24:25;97744.94;;;15.24;85.64
7802;BME280;3945;48.952;9.506;2023-05-12T12:26:52;97744.69;;;15.26;86.00
7802;BME280;3945;48.952;9.506;2023-05-12T12:29:18;97745.19;;;15.28;85.68
7802;BME280;3945;48.952;9.506;2023-05-12T12:31:44;97748.97;;;15.27;85.03
7802;BME280;3945;48.952;9.506;2023-05-12T12:34:12;97751.66;;;15.27;84.77
7802;BME280;3945;48.952;9.506;2023-05-12T12:36:38;97756.19;;;15.31;85.10
7802;BME280;3945;48.952;9.506;2023-05-12T12:39:05;97752.66;;;15.36;84.68
7802;BME280;3945;48.952;9.506;2023-05-12T12:41:31;97749.66;;;15.42;85.19
7802;BME280;3945;48.952;9.506;2023-05-12T12:43:58;97753.69;;;15.45;83.38
7802;BME280;3945;48.952;9.506;2023-05-12T12:46:24;97750.97;;;15.50;83.33
7802;BME280;3945;48.952;9.506;2023-05-12T12:48:51;97748.06;;;15.46;82.93
7802;BME280;3945;48.952;9.506;2023-05-12T12:51:19;97744.03;;;15.44;81.88
7802;BME280;3945;48.952;9.506;2023-05-12T12:53:45;97750.78;;;15.36;82.25
7802;BME280;3945;48.952;9.506;2023-05-12T12:56:11;97759.34;;;15.38;82.82
7802;BME280;3945;48.952;9.506;2023-05-12T12:58:38;97755.91;;;15.33;79.90
7802;BME280;3945;48.952;9.506;2023-05-12T13:01:04;97754.03;;;15.33;79.71
7802;BME280;3945;48.952;9.506;2023-05-12T13:03:30;97743.28;;;15.38;79.62
7802;BME280;3945;48.952;9.506;2023-05-12T13:05:57;97747.53;;;15.44;80.02
7802;BME280;3945;48.952;9.506;2023-05-12T13:08:24;97749.97;;;15.41;78.32
7802;BME280;3945;48.952;9.506;2023-05-12T13:10:51;97754.22;;;15.42;78.92
7802;BME280;3945;48.952;9.506;2023-05-12T13:13:18;97755.34;;;15.41;79.51
7802;BME280;3945;48.952;9.506;2023-05-12T13:15:44;97748.09;;;15.41;79.86